One American Place, Louisiana
Current Conditions -  °F | °C
As of 10:53 AM on Sunday 23 Nov 2014 (Local Time) from KBTR Reporting Station
Overcast Overcast  
Wind Chill: 65°   Ceiling: 2500
Heat Index: 65°   Visibility: 10mi
Dew Point: 60°   Wind: 10mph
Humidity: 84%   Direction: 220°SW
Pressure: 29.67"   Gusts: NA
Location:  30.4285°N, 91.0224°W
Report Text: KBTR 231653Z 22009KT 10SM SCT021 OVC025 18/16 A2967 RMK AO2 SLP047 T01830156 $
Loading
Personal Weather Stations






























Interactive Weather Map New forecast layout! Learn more

10-Day Weather Forecast

Advertisements
Track Severe Weather on mobile